Time;durP1;ratioP1;P1;durP2;ratioP2;P2;SDS_P1;SDS_P2;PMS_P1;PMS_P2;Temp;Humidity;BMP_temperature;BMP_pressure;BME280_temperature;BME280_humidity;BME280_pressure;Samples;Min_cycle;Max_cycle;Signal;HPM_P1;HPM_P2
2021/08/06 03:21:05;;;;;;;42.17;37.88;;;;;;;;;;5264072;27;20084;-82
2021/08/06 09:28:57;;;;;;;6.72;2.10;;;;;;;;;;5260974;27;20026;-85
2021/08/06 09:31:26;;;;;;;5.72;1.92;;;;;;;;;;5264298;27;20046;-85
2021/08/06 09:34:28;;;;;;;6.43;1.83;;;;;;;;;;5260408;27;20458;-85
2021/08/06 09:37:03;;;;;;;5.80;1.80;;;;;;;;;;5231025;27;20506;-85
2021/08/06 09:39:33;;;;;;;5.37;1.80;;;;;;;;;;5267304;27;20040;-85
2021/08/06 09:42:35;;;;;;;6.20;2.03;;;;;;;;;;5268937;27;20434;-85
2021/08/06 09:45:04;;;;;;;7.65;2.12;;;;;;;;;;5263476;27;20047;-85
2021/08/06 09:47:33;;;;;;;8.38;1.95;;;;;;;;;;5268556;27;20052;-85
2021/08/06 09:50:04;;;;;;;9.52;2.28;;;;;;;;;;5271613;27;20026;-84
2021/08/06 09:52:34;;;;;;;7.60;2.53;;;;;;;;;;5271268;27;20064;-85
2021/08/06 09:55:22;;;;;;;5.97;2.17;;;;;;;;;;5267880;27;20185;-85
2021/08/06 09:57:51;;;;;;;6.37;2.15;;;;;;;;;;5268544;27;20040;-85
2021/08/06 10:00:21;;;;;;;5.40;1.83;;;;;;;;;;5267637;27;20018;-85
2021/08/06 10:02:50;;;;;;;7.35;2.00;;;;;;;;;;5271310;27;20022;-85
2021/08/06 10:05:20;;;;;;;9.00;2.00;;;;;;;;;;5269756;27;20014;-85
2021/08/06 10:07:59;;;;;;;5.60;1.92;;;;;;;;;;5271319;27;20336;-85
2021/08/06 10:10:30;;;;;;;7.05;1.90;;;;;;;;;;5270444;27;20250;-85
2021/08/06 10:13:00;;;;;;;7.32;2.00;;;;;;;;;;5268150;27;20392;-85
2021/08/06 10:15:30;;;;;;;8.35;1.95;;;;;;;;;;5268646;27;20483;-85
2021/08/06 10:17:59;;;;;;;5.22;1.83;;;;;;;;;;5266180;27;20411;-85
2021/08/06 10:20:29;;;;;;;5.90;1.95;;;;;;;;;;5265315;27;20065;-85
2021/08/06 10:22:57;;;;;;;7.07;1.90;;;;;;;;;;5268150;27;20061;-85
2021/08/06 10:25:26;;;;;;;6.95;1.83;;;;;;;;;;5272105;27;20088;-85
2021/08/06 10:27:56;;;;;;;6.30;2.30;;;;;;;;;;5265046;27;20030;-85
2021/08/06 10:30:24;;;;;;;5.62;2.17;;;;;;;;;;5273544;27;20059;-85
2021/08/06 10:33:06;;;;;;;5.05;1.83;;;;;;;;;;5266532;27;20024;-85
2021/08/06 10:35:45;;;;;;;6.25;1.90;;;;;;;;;;5269369;27;20034;-85
2021/08/06 10:38:14;;;;;;;7.18;1.70;;;;;;;;;;5266901;27;20021;-84
2021/08/06 10:40:43;;;;;;;8.30;2.08;;;;;;;;;;5269524;27;20081;-85
2021/08/06 10:43:12;;;;;;;8.82;1.85;;;;;;;;;;5268584;27;20028;-85
2021/08/06 10:45:46;;;;;;;4.87;1.58;;;;;;;;;;5265153;27;20119;-85
2021/08/06 10:48:27;;;;;;;6.25;1.90;;;;;;;;;;5259292;27;20404;-86
2021/08/06 10:51:15;;;;;;;8.23;2.10;;;;;;;;;;5248950;27;20014;-86
2021/08/06 10:53:47;;;;;;;5.05;1.75;;;;;;;;;;5270157;27;20010;-85
2021/08/06 10:56:21;;;;;;;4.85;1.80;;;;;;;;;;5269904;27;20045;-85
2021/08/06 10:58:53;;;;;;;8.02;1.85;;;;;;;;;;5265627;27;20126;-85
2021/08/06 11:01:28;;;;;;;12.82;2.72;;;;;;;;;;5264202;27;20006;-85
2021/08/06 11:04:03;;;;;;;5.75;1.80;;;;;;;;;;5268253;27;20027;-85
2021/08/06 11:06:31;;;;;;;9.77;1.87;;;;;;;;;;5266776;27;20852;-85
2021/08/06 11:09:00;;;;;;;5.43;2.08;;;;;;;;;;5271955;27;20022;-85
2021/08/06 11:11:41;;;;;;;4.45;1.98;;;;;;;;;;5263898;27;20049;-85
2021/08/06 11:14:11;;;;;;;5.90;1.90;;;;;;;;;;5251998;27;20018;-85
2021/08/06 11:16:58;;;;;;;6.35;2.20;;;;;;;;;;5265557;27;20033;-85
2021/08/06 11:19:37;;;;;;;6.82;2.00;;;;;;;;;;5268443;27;20033;-85
2021/08/06 11:22:08;;;;;;;3.92;1.50;;;;;;;;;;5267815;27;20013;-85
2021/08/06 11:24:39;;;;;;;5.78;1.60;;;;;;;;;;5249551;27;20037;-85
2021/08/06 11:27:08;;;;;;;8.65;1.77;;;;;;;;;;5265602;27;20040;-84
2021/08/06 11:29:36;;;;;;;5.35;1.80;;;;;;;;;;5270505;27;20096;-84
2021/08/06 11:32:06;;;;;;;7.35;2.08;;;;;;;;;;5269019;27;20047;-85
2021/08/06 11:34:55;;;;;;;6.65;1.65;;;;;;;;;;5266811;27;20371;-84
2021/08/06 11:37:26;;;;;;;9.10;2.10;;;;;;;;;;5247628;27;20034;-85
2021/08/06 11:40:04;;;;;;;8.13;2.03;;;;;;;;;;5269200;27;20048;-84
2021/08/06 11:42:33;;;;;;;8.35;2.00;;;;;;;;;;5266311;27;20344;-85
2021/08/06 11:45:02;;;;;;;6.12;1.70;;;;;;;;;;5268176;27;20055;-85
2021/08/06 11:47:52;;;;;;;7.12;1.87;;;;;;;;;;5268311;27;20812;-84
2021/08/06 11:50:37;;;;;;;7.03;1.92;;;;;;;;;;5266267;27;20030;-85
2021/08/06 11:53:13;;;;;;;8.65;2.00;;;;;;;;;;5265199;27;20017;-84
2021/08/06 11:55:43;;;;;;;6.35;1.87;;;;;;;;;;5267038;27;20036;-83
2021/08/06 11:58:11;;;;;;;6.85;1.83;;;;;;;;;;5265936;27;20018;-84
2021/08/06 12:00:40;;;;;;;5.05;2.00;;;;;;;;;;5269002;27;20022;-83
2021/08/06 12:03:11;;;;;;;7.80;2.20;;;;;;;;;;5271104;27;20025;-84
2021/08/06 12:05:44;;;;;;;4.07;1.67;;;;;;;;;;5272032;27;20013;-85
2021/08/06 12:08:18;;;;;;;8.68;1.90;;;;;;;;;;5266752;27;20194;-85
2021/08/06 12:10:48;;;;;;;4.75;1.70;;;;;;;;;;5271577;27;20073;-84
2021/08/06 12:13:20;;;;;;;4.82;1.70;;;;;;;;;;5272932;27;20328;-84
2021/08/06 12:15:59;;;;;;;6.70;1.80;;;;;;;;;;5272006;27;20101;-84
2021/08/06 12:18:29;;;;;;;6.40;1.80;;;;;;;;;;5271698;27;20021;-84
2021/08/06 12:21:02;;;;;;;11.68;2.05;;;;;;;;;;5272990;27;20049;-84
2021/08/06 12:23:31;;;;;;;9.23;1.90;;;;;;;;;;5251023;27;20399;-84
2021/08/06 12:26:06;;;;;;;5.90;1.85;;;;;;;;;;5272869;27;20051;-85
2021/08/06 12:28:35;;;;;;;4.45;1.42;;;;;;;;;;5268854;27;20046;-85
2021/08/06 12:31:21;;;;;;;8.68;1.77;;;;;;;;;;5271081;27;20032;-84
2021/08/06 12:34:03;;;;;;;5.57;1.70;;;;;;;;;;5252819;27;20025;-84
2021/08/06 12:36:32;;;;;;;6.32;1.83;;;;;;;;;;5273028;27;20040;-84
2021/08/06 12:39:11;;;;;;;12.27;2.12;;;;;;;;;;5269916;27;20040;-84
2021/08/06 12:41:41;;;;;;;7.90;2.08;;;;;;;;;;5266270;27;20025;-84
2021/08/06 12:44:17;;;;;;;7.35;2.12;;;;;;;;;;5267951;27;20079;-86
2021/08/06 12:46:55;;;;;;;6.15;1.92;;;;;;;;;;5271202;27;20044;-84
2021/08/06 12:49:25;;;;;;;3.22;1.67;;;;;;;;;;5269380;27;20030;-84
2021/08/06 12:51:58;;;;;;;5.10;1.40;;;;;;;;;;5269180;27;20017;-84
2021/08/06 12:54:36;;;;;;;4.97;1.70;;;;;;;;;;5271166;27;20031;-84
2021/08/06 12:57:08;;;;;;;8.88;1.95;;;;;;;;;;5270407;27;20009;-84
2021/08/06 12:59:43;;;;;;;5.35;1.62;;;;;;;;;;5272150;27;20009;-84
2021/08/06 13:02:15;;;;;;;8.05;1.75;;;;;;;;;;5272794;27;20014;-84
2021/08/06 13:04:45;;;;;;;6.05;1.90;;;;;;;;;;5270179;27;20021;-84
2021/08/06 13:07:26;;;;;;;4.65;1.62;;;;;;;;;;5271400;27;20017;-84
2021/08/06 13:09:55;;;;;;;6.00;2.00;;;;;;;;;;5271197;27;20446;-84
2021/08/06 13:12:24;;;;;;;6.40;1.92;;;;;;;;;;5271416;27;20018;-86
2021/08/06 13:14:52;;;;;;;5.93;1.90;;;;;;;;;;5271087;27;20025;-85
2021/08/06 13:17:21;;;;;;;8.00;2.30;;;;;;;;;;5269759;27;20049;-84
2021/08/06 13:19:50;;;;;;;8.23;1.92;;;;;;;;;;5274148;27;20056;-84
2021/08/06 13:22:20;;;;;;;7.68;2.00;;;;;;;;;;5273716;27;20021;-85
2021/08/06 13:24:50;;;;;;;8.05;1.95;;;;;;;;;;5273070;27;20068;-84
2021/08/06 13:27:18;;;;;;;7.22;2.10;;;;;;;;;;5268232;27;20022;-84
2021/08/06 13:29:47;;;;;;;6.68;1.90;;;;;;;;;;5268725;27;20412;-83
2021/08/06 13:32:16;;;;;;;5.53;1.83;;;;;;;;;;5251070;27;20272;-84
2021/08/06 13:34:44;;;;;;;10.68;2.92;;;;;;;;;;5265925;27;20067;-85
2021/08/06 13:37:13;;;;;;;6.62;1.42;;;;;;;;;;5253484;27;20052;-85
2021/08/06 13:39:41;;;;;;;7.37;1.80;;;;;;;;;;5271670;27;20037;-83
2021/08/06 13:42:11;;;;;;;6.40;1.75;;;;;;;;;;5269893;27;20033;-85
2021/08/06 13:44:39;;;;;;;6.32;2.03;;;;;;;;;;5270113;27;20049;-84
2021/08/06 13:47:09;;;;;;;7.12;1.37;;;;;;;;;;5265049;27;20061;-84
2021/08/06 13:49:37;;;;;;;5.57;1.73;;;;;;;;;;5268427;27;20152;-83
2021/08/06 13:52:07;;;;;;;4.80;1.27;;;;;;;;;;5265580;27;20189;-84
2021/08/06 13:54:36;;;;;;;5.65;1.80;;;;;;;;;;5249459;27;20063;-83
2021/08/06 13:57:05;;;;;;;5.47;1.52;;;;;;;;;;5274683;27;20357;-85
2021/08/06 13:59:33;;;;;;;5.22;1.60;;;;;;;;;;5271236;27;20027;-84
2021/08/06 14:02:02;;;;;;;7.37;1.58;;;;;;;;;;5250085;27;20040;-84
2021/08/06 14:04:32;;;;;;;4.82;1.40;;;;;;;;;;5269165;27;20724;-84
2021/08/06 14:07:01;;;;;;;3.95;1.40;;;;;;;;;;5270431;27;20099;-85
2021/08/06 14:09:30;;;;;;;7.97;1.37;;;;;;;;;;5267958;27;20542;-85
2021/08/06 14:11:58;;;;;;;5.75;1.40;;;;;;;;;;5247663;27;20028;-84
2021/08/06 14:14:27;;;;;;;3.12;1.30;;;;;;;;;;5264772;27;20080;-84
2021/08/06 14:16:55;;;;;;;5.07;1.20;;;;;;;;;;5265594;27;20427;-85
2021/08/06 14:19:24;;;;;;;5.70;1.40;;;;;;;;;;5263078;27;20030;-84
2021/08/06 14:21:53;;;;;;;7.05;1.48;;;;;;;;;;5266938;27;20408;-85
2021/08/06 14:24:21;;;;;;;4.90;1.20;;;;;;;;;;5266644;27;20052;-85
2021/08/06 14:26:50;;;;;;;5.45;1.50;;;;;;;;;;5267697;27;20034;-85
2021/08/06 14:29:19;;;;;;;7.00;1.55;;;;;;;;;;5263578;27;20055;-84
2021/08/06 14:31:48;;;;;;;3.65;1.12;;;;;;;;;;5225550;27;20022;-85
2021/08/06 14:34:17;;;;;;;6.10;1.20;;;;;;;;;;5266935;27;20041;-85
2021/08/06 14:36:46;;;;;;;6.07;1.12;;;;;;;;;;5264580;27;20066;-85
2021/08/06 14:39:14;;;;;;;4.00;1.15;;;;;;;;;;5260987;27;20021;-85
2021/08/06 14:41:43;;;;;;;2.83;1.08;;;;;;;;;;5262444;27;20080;-84
2021/08/06 14:44:11;;;;;;;4.55;1.10;;;;;;;;;;5262860;27;20067;-84
2021/08/06 14:46:40;;;;;;;3.75;0.98;;;;;;;;;;5245277;27;20130;-85
2021/08/06 14:49:09;;;;;;;5.40;1.05;;;;;;;;;;5264930;27;20033;-85
2021/08/06 14:51:37;;;;;;;4.50;0.90;;;;;;;;;;5245683;27;20076;-85
2021/08/06 14:54:06;;;;;;;3.05;0.75;;;;;;;;;;5263754;27;20148;-85
2021/08/06 14:56:34;;;;;;;3.65;0.80;;;;;;;;;;5264924;27;20034;-85
2021/08/06 14:59:03;;;;;;;5.07;1.10;;;;;;;;;;5263199;27;20391;-85
2021/08/06 15:01:31;;;;;;;1.77;0.70;;;;;;;;;;5263422;27;20026;-86
2021/08/06 15:04:00;;;;;;;3.37;0.55;;;;;;;;;;5264897;27;20040;-85
2021/08/06 15:06:29;;;;;;;3.85;0.62;;;;;;;;;;5264530;27;20023;-85
2021/08/06 15:08:58;;;;;;;2.53;0.65;;;;;;;;;;5264618;27;20372;-85
2021/08/06 15:11:27;;;;;;;3.05;0.60;;;;;;;;;;5265473;27;20159;-84
2021/08/06 15:13:55;;;;;;;1.30;0.47;;;;;;;;;;5265451;27;20040;-86
2021/08/06 15:16:23;;;;;;;5.15;0.93;;;;;;;;;;5245806;27;20405;-84
2021/08/06 15:18:52;;;;;;;2.17;0.60;;;;;;;;;;5264957;27;20037;-85
2021/08/06 15:21:21;;;;;;;2.17;1.10;;;;;;;;;;5266121;27;20051;-86
2021/08/06 15:23:49;;;;;;;4.35;1.00;;;;;;;;;;5247857;27;20029;-85
2021/08/06 15:26:18;;;;;;;2.83;0.70;;;;;;;;;;5262653;27;20042;-85
2021/08/06 15:28:46;;;;;;;1.83;0.40;;;;;;;;;;5244915;27;20709;-85
2021/08/06 15:31:15;;;;;;;6.30;0.80;;;;;;;;;;5261189;27;20074;-85
2021/08/06 15:33:44;;;;;;;3.58;0.90;;;;;;;;;;5265792;27;20045;-83
2021/08/06 15:36:12;;;;;;;2.25;0.50;;;;;;;;;;5263581;27;20418;-84
2021/08/06 15:38:41;;;;;;;2.10;0.55;;;;;;;;;;5264651;27;20431;-85
2021/08/06 15:41:10;;;;;;;1.70;0.60;;;;;;;;;;5266406;27;20481;-83
2021/08/06 15:43:39;;;;;;;2.70;0.70;;;;;;;;;;5264575;27;20392;-84
2021/08/06 15:46:08;;;;;;;2.80;0.70;;;;;;;;;;5261099;27;20029;-84
2021/08/06 15:48:37;;;;;;;2.45;0.82;;;;;;;;;;5246383;27;20309;-84
2021/08/06 15:51:06;;;;;;;3.33;0.80;;;;;;;;;;5243458;27;20031;-85
2021/08/06 15:53:35;;;;;;;3.10;0.70;;;;;;;;;;5262939;27;20065;-85
2021/08/06 15:56:04;;;;;;;2.33;0.70;;;;;;;;;;5264919;27;20022;-85
2021/08/06 15:58:32;;;;;;;2.72;0.90;;;;;;;;;;5262108;27;20100;-84
2021/08/06 16:01:01;;;;;;;2.40;0.80;;;;;;;;;;5265265;27;20096;-85
2021/08/06 16:03:30;;;;;;;2.72;0.80;;;;;;;;;;5263403;27;20547;-84
2021/08/06 16:05:59;;;;;;;2.92;0.90;;;;;;;;;;5266785;27;20428;-85
2021/08/06 16:08:28;;;;;;;4.40;1.00;;;;;;;;;;5267707;27;20376;-84
2021/08/06 16:10:59;;;;;;;5.32;1.20;;;;;;;;;;5266473;27;20407;-85
2021/08/06 16:13:28;;;;;;;4.85;1.20;;;;;;;;;;5263846;27;20309;-85
2021/08/06 16:15:56;;;;;;;6.47;1.10;;;;;;;;;;5267572;27;20022;-85
2021/08/06 16:18:25;;;;;;;5.43;1.20;;;;;;;;;;5266849;27;20037;-85
2021/08/06 16:20:54;;;;;;;5.37;1.20;;;;;;;;;;5264023;27;20025;-85
2021/08/06 16:23:22;;;;;;;2.87;1.00;;;;;;;;;;5264991;27;20532;-84
2021/08/06 16:25:51;;;;;;;7.87;1.40;;;;;;;;;;5246045;27;20482;-84
2021/08/06 16:28:20;;;;;;;10.57;1.40;;;;;;;;;;5244071;27;20040;-87
2021/08/06 16:31:09;;;;;;;3.62;0.90;;;;;;;;;;5261443;27;20422;-86
2021/08/06 16:33:40;;;;;;;4.10;1.27;;;;;;;;;;5264330;27;20475;-86
2021/08/06 16:36:10;;;;;;;3.78;0.80;;;;;;;;;;5265786;27;20046;-86
2021/08/06 16:38:39;;;;;;;4.55;0.80;;;;;;;;;;5267874;27;20025;-85
2021/08/06 16:41:07;;;;;;;2.15;0.93;;;;;;;;;;5260677;27;20025;-86
2021/08/06 16:43:36;;;;;;;5.85;0.93;;;;;;;;;;5264306;27;20423;-85
2021/08/06 16:46:05;;;;;;;2.95;0.80;;;;;;;;;;5266310;27;20034;-85
2021/08/06 16:48:35;;;;;;;2.80;0.93;;;;;;;;;;5268269;27;20374;-86
2021/08/06 16:51:04;;;;;;;2.33;0.90;;;;;;;;;;5267610;27;20063;-85
2021/08/06 16:53:33;;;;;;;5.57;1.35;;;;;;;;;;5266468;27;20014;-86
2021/08/06 16:56:03;;;;;;;2.83;0.77;;;;;;;;;;5265791;27;20048;-86
2021/08/06 16:58:32;;;;;;;2.83;1.12;;;;;;;;;;5263728;27;20052;-86
2021/08/06 17:01:01;;;;;;;2.15;0.90;;;;;;;;;;5266474;27;20076;-87
2021/08/06 17:03:29;;;;;;;1.77;1.15;;;;;;;;;;5268956;27;20018;-86
2021/08/06 17:05:58;;;;;;;4.82;4.40;;;;;;;;;;5265216;27;20049;-86
2021/08/06 17:08:26;;;;;;;8.07;7.20;;;;;;;;;;5266038;27;20048;-85
2021/08/06 17:10:55;;;;;;;3.40;3.17;;;;;;;;;;5264334;27;20028;-85
2021/08/06 17:13:24;;;;;;;12.77;11.90;;;;;;;;;;5264909;27;20089;-86
2021/08/06 17:15:52;;;;;;;22.90;21.77;;;;;;;;;;5267418;27;20026;-85
2021/08/06 17:18:20;;;;;;;14.80;13.98;;;;;;;;;;5265997;27;20056;-86
2021/08/06 17:20:49;;;;;;;23.30;22.27;;;;;;;;;;5267356;27;20025;-87
2021/08/06 17:23:18;;;;;;;15.48;14.73;;;;;;;;;;5265575;27;20026;-85
2021/08/06 17:25:47;;;;;;;26.05;24.48;;;;;;;;;;5266263;27;20344;-85
2021/08/06 17:28:16;;;;;;;39.53;36.25;;;;;;;;;;5266614;27;20356;-87
2021/08/06 17:30:44;;;;;;;31.40;29.08;;;;;;;;;;5259249;27;20017;-85
2021/08/06 17:33:12;;;;;;;40.17;37.08;;;;;;;;;;5265776;27;20041;-86
2021/08/06 17:35:41;;;;;;;41.25;37.78;;;;;;;;;;5263929;27;20406;-85
2021/08/06 17:38:10;;;;;;;41.78;37.80;;;;;;;;;;5245239;27;20069;-84
2021/08/06 17:40:40;;;;;;;48.22;43.97;;;;;;;;;;5243910;27;20017;-87
2021/08/06 17:43:10;;;;;;;53.30;48.20;;;;;;;;;;5266471;27;20704;-87
2021/08/06 17:45:39;;;;;;;67.40;61.05;;;;;;;;;;5246574;27;20371;-86
2021/08/06 17:48:07;;;;;;;124.30;91.82;;;;;;;;;;5244065;27;20533;-86
2021/08/06 17:50:36;;;;;;;119.87;90.18;;;;;;;;;;5243947;27;20120;-86
2021/08/06 17:53:05;;;;;;;107.72;71.65;;;;;;;;;;5264570;27;20030;-86
2021/08/06 17:55:33;;;;;;;106.45;75.85;;;;;;;;;;5262577;27;20439;-86
2021/08/06 17:58:02;;;;;;;116.60;79.00;;;;;;;;;;5246812;27;20053;-86
2021/08/06 18:00:30;;;;;;;103.72;71.37;;;;;;;;;;5258049;27;20080;-86
2021/08/06 18:02:59;;;;;;;103.68;71.20;;;;;;;;;;5264418;27;20040;-86
2021/08/06 18:05:28;;;;;;;106.55;68.15;;;;;;;;;;5257732;27;20032;-85
2021/08/06 18:07:56;;;;;;;121.62;70.00;;;;;;;;;;5254163;27;20045;-86
2021/08/06 18:10:26;;;;;;;115.60;66.15;;;;;;;;;;5237326;27;20154;-85
2021/08/06 18:12:54;;;;;;;64.55;51.13;;;;;;;;;;5262398;27;20018;-86
2021/08/06 18:15:25;;;;;;;59.67;47.95;;;;;;;;;;5261099;27;20066;-86
2021/08/06 18:17:55;;;;;;;63.00;48.50;;;;;;;;;;5259538;27;20026;-86
2021/08/06 18:20:25;;;;;;;59.60;49.00;;;;;;;;;;5260036;27;20063;-87
2021/08/06 18:22:54;;;;;;;61.92;50.03;;;;;;;;;;5263946;27;20434;-86
2021/08/06 18:25:23;;;;;;;105.18;59.13;;;;;;;;;;5246313;27;20071;-85
2021/08/06 18:27:51;;;;;;;106.72;60.03;;;;;;;;;;5261779;27;20093;-86
2021/08/06 18:30:21;;;;;;;95.03;56.60;;;;;;;;;;5264390;27;20029;-85
2021/08/06 18:32:50;;;;;;;101.28;58.83;;;;;;;;;;5264323;27;20321;-86
2021/08/06 18:35:18;;;;;;;75.47;49.63;;;;;;;;;;5263401;27;20669;-86
2021/08/06 18:37:47;;;;;;;91.82;54.28;;;;;;;;;;5269444;27;20089;-86
2021/08/06 18:40:17;;;;;;;91.82;53.80;;;;;;;;;;5248142;27;20324;-85
2021/08/06 18:42:45;;;;;;;99.97;56.95;;;;;;;;;;5245590;27;20487;-86
2021/08/06 18:45:19;;;;;;;97.05;55.70;;;;;;;;;;5242261;27;20026;-86
2021/08/06 18:47:48;;;;;;;;;;;;;;;;;;5267736;27;20117;-85
2021/08/06 18:50:17;;;;;;;51.85;37.95;;;;;;;;;;5265343;27;19974;-87
2021/08/06 18:52:45;;;;;;;49.40;36.55;;;;;;;;;;5263704;27;20037;-86
2021/08/06 18:55:14;;;;;;;50.35;35.97;;;;;;;;;;5244064;27;20037;-85
2021/08/06 18:57:43;;;;;;;51.60;34.30;;;;;;;;;;5263520;27;20644;-86
2021/08/06 19:00:12;;;;;;;51.75;36.95;;;;;;;;;;5264316;27;20053;-86
2021/08/06 19:02:45;;;;;;;55.38;38.38;;;;;;;;;;5262095;27;20610;-86
2021/08/06 19:05:14;;;;;;;61.55;39.75;;;;;;;;;;5261193;27;20031;-85
2021/08/06 19:07:42;;;;;;;53.38;38.42;;;;;;;;;;5244073;27;20395;-86
2021/08/06 19:10:12;;;;;;;73.72;43.50;;;;;;;;;;5244637;27;20621;-86
2021/08/06 19:12:40;;;;;;;67.62;43.22;;;;;;;;;;5266898;27;20022;-84
2021/08/06 19:15:09;;;;;;;62.13;41.88;;;;;;;;;;5263685;27;20033;-86
2021/08/06 19:17:37;;;;;;;66.85;41.05;;;;;;;;;;5262793;27;20368;-86
2021/08/06 19:20:06;;;;;;;65.80;41.75;;;;;;;;;;5263242;27;20470;-86
2021/08/06 19:22:34;;;;;;;56.47;40.12;;;;;;;;;;5260774;27;20018;-86
2021/08/06 19:25:03;;;;;;;67.12;44.22;;;;;;;;;;5265853;27;20575;-86
2021/08/06 19:27:32;;;;;;;34.40;31.17;;;;;;;;;;5244193;27;20063;-85
2021/08/06 19:30:00;;;;;;;35.10;31.77;;;;;;;;;;5265168;27;20026;-86
2021/08/06 19:32:33;;;;;;;33.13;30.02;;;;;;;;;;5264674;27;20037;-85
2021/08/06 19:35:05;;;;;;;47.13;38.17;;;;;;;;;;5266235;27;20092;-85
2021/08/06 19:37:34;;;;;;;74.43;58.58;;;;;;;;;;5245652;27;20025;-85
2021/08/06 19:40:04;;;;;;;63.80;57.88;;;;;;;;;;5264452;27;20047;-86
2021/08/06 19:42:32;;;;;;;101.80;65.00;;;;;;;;;;5265167;27;20053;-85
2021/08/06 19:45:01;;;;;;;87.90;61.28;;;;;;;;;;5262903;27;20047;-86
2021/08/06 19:47:30;;;;;;;68.93;55.42;;;;;;;;;;5259876;27;20638;-86
2021/08/06 19:49:59;;;;;;;70.22;55.88;;;;;;;;;;5267173;27;20044;-86
2021/08/06 19:52:28;;;;;;;69.82;53.90;;;;;;;;;;5267165;27;20553;-85
2021/08/06 19:54:56;;;;;;;61.10;53.40;;;;;;;;;;5263748;27;20029;-86
2021/08/06 19:57:24;;;;;;;60.15;51.65;;;;;;;;;;5257816;27;20080;-86
2021/08/06 19:59:53;;;;;;;56.45;50.40;;;;;;;;;;5260556;27;20505;-86
2021/08/06 20:02:22;;;;;;;55.97;49.97;;;;;;;;;;5261622;27;20568;-86
2021/08/06 20:04:51;;;;;;;59.80;52.78;;;;;;;;;;5246012;27;20030;-84
2021/08/06 20:07:19;;;;;;;71.03;63.22;;;;;;;;;;5267972;27;20010;-84
2021/08/06 20:09:48;;;;;;;67.93;60.72;;;;;;;;;;5264832;27;20022;-85
2021/08/06 20:12:16;;;;;;;56.15;50.78;;;;;;;;;;5240757;27;20337;-86
2021/08/06 20:14:45;;;;;;;56.13;51.13;;;;;;;;;;5262858;27;20029;-84
2021/08/06 20:17:13;;;;;;;56.45;50.53;;;;;;;;;;5264731;27;20025;-86
2021/08/06 20:19:43;;;;;;;107.72;52.92;;;;;;;;;;5260201;27;20041;-85
2021/08/06 20:22:11;;;;;;;59.35;52.62;;;;;;;;;;5263350;27;20298;-85
2021/08/06 20:24:40;;;;;;;63.40;55.03;;;;;;;;;;5263486;27;20036;-86
2021/08/06 20:27:08;;;;;;;105.43;55.50;;;;;;;;;;5244147;27;20100;-85
2021/08/06 20:29:37;;;;;;;75.85;53.95;;;;;;;;;;5259896;27;20021;-86
2021/08/06 20:32:05;;;;;;;81.12;54.65;;;;;;;;;;5259518;27;20025;-86
2021/08/06 20:34:34;;;;;;;71.62;53.75;;;;;;;;;;5263656;27;20029;-85
2021/08/06 20:37:06;;;;;;;63.75;53.60;;;;;;;;;;5262504;27;20029;-86
2021/08/06 20:39:34;;;;;;;61.72;52.38;;;;;;;;;;5256891;27;20038;-85
2021/08/06 20:42:03;;;;;;;56.15;50.15;;;;;;;;;;5258729;27;20037;-84
2021/08/06 20:44:31;;;;;;;53.72;45.97;;;;;;;;;;5240884;27;20297;-84
2021/08/06 20:47:00;;;;;;;49.42;44.80;;;;;;;;;;5260987;27;20034;-85
2021/08/06 20:49:29;;;;;;;87.62;44.13;;;;;;;;;;5245134;27;20018;-84
2021/08/06 20:51:58;;;;;;;75.95;41.80;;;;;;;;;;5263221;27;20488;-84
2021/08/06 20:54:27;;;;;;;44.50;40.15;;;;;;;;;;5261583;27;20025;-84
2021/08/06 20:56:55;;;;;;;66.28;43.55;;;;;;;;;;5266973;27;20021;-83
2021/08/06 20:59:23;;;;;;;49.63;43.50;;;;;;;;;;5266708;27;20025;-84
2021/08/06 21:01:52;;;;;;;47.22;42.17;;;;;;;;;;5262856;27;20061;-84
2021/08/06 21:04:21;;;;;;;60.05;43.75;;;;;;;;;;5242603;27;20063;-85
2021/08/06 21:06:49;;;;;;;54.90;43.97;;;;;;;;;;5263716;27;20040;-85
2021/08/06 21:09:18;;;;;;;49.47;44.58;;;;;;;;;;5246666;27;20033;-84
2021/08/06 21:11:46;;;;;;;49.28;44.55;;;;;;;;;;5266900;27;20049;-84
2021/08/06 21:14:15;;;;;;;46.53;42.03;;;;;;;;;;5267602;27;20315;-85
2021/08/06 21:16:43;;;;;;;45.95;41.65;;;;;;;;;;5263205;27;20345;-84
2021/08/06 21:19:12;;;;;;;46.17;41.90;;;;;;;;;;5265979;27;20060;-85
2021/08/06 21:21:40;;;;;;;44.00;37.00;;;;;;;;;;5262005;27;20145;-85
2021/08/06 21:24:09;;;;;;;120.22;47.72;;;;;;;;;;5264121;27;20089;-84
2021/08/06 21:26:37;;;;;;;74.07;47.10;;;;;;;;;;5264598;27;20018;-84
2021/08/06 21:29:06;;;;;;;93.18;35.38;;;;;;;;;;5265553;27;20030;-85
2021/08/06 21:31:34;;;;;;;39.60;36.47;;;;;;;;;;5266180;27;20092;-85
2021/08/06 21:34:03;;;;;;;62.05;32.95;;;;;;;;;;5266993;27;20082;-84
2021/08/06 21:36:31;;;;;;;64.60;42.42;;;;;;;;;;5264523;27;20025;-86
2021/08/06 21:39:02;;;;;;;64.72;41.28;;;;;;;;;;5268205;27;20081;-84
2021/08/06 21:41:30;;;;;;;43.35;39.03;;;;;;;;;;5264786;27;20098;-84
2021/08/06 21:43:59;;;;;;;38.00;34.88;;;;;;;;;;5246816;27;20372;-84
2021/08/06 21:46:28;;;;;;;45.33;41.33;;;;;;;;;;5248689;27;20634;-84
2021/08/06 21:48:57;;;;;;;44.65;40.72;;;;;;;;;;5266283;27;20022;-84
2021/08/06 21:51:25;;;;;;;45.10;41.00;;;;;;;;;;5267886;27;20250;-84
2021/08/06 21:53:55;;;;;;;43.97;40.08;;;;;;;;;;5266486;27;20034;-84
2021/08/06 21:56:23;;;;;;;44.50;40.10;;;;;;;;;;5266037;27;20026;-84
2021/08/06 21:58:52;;;;;;;33.85;31.27;;;;;;;;;;5265140;27;20332;-84
2021/08/06 22:01:20;;;;;;;54.05;32.20;;;;;;;;;;5267128;27;20482;-84
2021/08/06 22:03:50;;;;;;;34.63;31.70;;;;;;;;;;5245858;27;20251;-84
2021/08/06 22:06:18;;;;;;;36.75;32.95;;;;;;;;;;5267710;27;20025;-84
2021/08/06 22:08:46;;;;;;;46.25;33.22;;;;;;;;;;5264912;27;20079;-84
2021/08/06 22:11:15;;;;;;;55.50;33.58;;;;;;;;;;5268803;27;20029;-84
2021/08/06 22:13:44;;;;;;;53.87;38.38;;;;;;;;;;5266886;27;20044;-84
2021/08/06 22:16:12;;;;;;;42.90;38.67;;;;;;;;;;5268495;27;20067;-84
2021/08/06 22:18:41;;;;;;;60.63;42.00;;;;;;;;;;5264679;27;20045;-84
2021/08/06 22:21:09;;;;;;;54.53;41.37;;;;;;;;;;5265545;27;20059;-84
2021/08/06 22:23:38;;;;;;;85.28;41.88;;;;;;;;;;5268944;27;20413;-83
2021/08/06 22:26:09;;;;;;;98.85;41.50;;;;;;;;;;5265328;27;20079;-84
2021/08/06 22:28:37;;;;;;;43.80;39.10;;;;;;;;;;5266425;27;20026;-83
2021/08/06 22:31:05;;;;;;;42.97;38.60;;;;;;;;;;5247861;27;20359;-84
2021/08/06 22:33:34;;;;;;;46.63;42.33;;;;;;;;;;5265152;27;20029;-84
2021/08/06 22:36:02;;;;;;;35.58;32.72;;;;;;;;;;5266033;27;20053;-84
2021/08/06 22:38:31;;;;;;;35.90;33.10;;;;;;;;;;5263598;27;20033;-84
2021/08/06 22:40:59;;;;;;;37.65;34.42;;;;;;;;;;5260163;27;20533;-85
2021/08/06 22:43:28;;;;;;;39.28;36.15;;;;;;;;;;5265097;27;20021;-84
2021/08/06 22:45:56;;;;;;;39.88;35.97;;;;;;;;;;5261808;27;20021;-84
2021/08/06 22:48:25;;;;;;;36.08;32.80;;;;;;;;;;5264452;27;20070;-84
2021/08/06 22:50:54;;;;;;;46.83;42.13;;;;;;;;;;5264126;27;20013;-84
2021/08/06 22:53:22;;;;;;;49.15;42.08;;;;;;;;;;5265192;27;20222;-84
2021/08/06 22:55:51;;;;;;;42.62;38.33;;;;;;;;;;5264542;27;20037;-83
2021/08/06 22:58:19;;;;;;;43.05;38.63;;;;;;;;;;5247839;27;20117;-84
2021/08/06 23:00:48;;;;;;;44.05;39.45;;;;;;;;;;5267604;27;20199;-84
2021/08/06 23:03:17;;;;;;;42.72;37.95;;;;;;;;;;5248838;27;20471;-84
2021/08/06 23:05:46;;;;;;;43.75;38.10;;;;;;;;;;5266088;27;20365;-84
2021/08/06 23:08:16;;;;;;;41.40;37.30;;;;;;;;;;5264238;27;20026;-84
2021/08/06 23:10:45;;;;;;;41.13;36.80;;;;;;;;;;5268684;27;20112;-85
2021/08/06 23:13:13;;;;;;;44.25;39.67;;;;;;;;;;5269928;27;20028;-85
2021/08/06 23:15:42;;;;;;;34.47;31.30;;;;;;;;;;5267290;27;20052;-84
2021/08/06 23:18:11;;;;;;;68.18;29.45;;;;;;;;;;5265280;27;20053;-84
2021/08/06 23:20:39;;;;;;;39.28;27.37;;;;;;;;;;5266151;27;20024;-85
2021/08/06 23:23:07;;;;;;;104.12;30.88;;;;;;;;;;5269113;27;20026;-84
2021/08/06 23:25:37;;;;;;;39.15;29.73;;;;;;;;;;5266573;27;20025;-85
2021/08/06 23:28:05;;;;;;;129.18;42.00;;;;;;;;;;5268446;27;20056;-85
2021/08/06 23:30:34;;;;;;;74.82;41.30;;;;;;;;;;5267420;27;20021;-84
2021/08/06 23:33:02;;;;;;;46.20;41.17;;;;;;;;;;5269479;27;20102;-84
2021/08/06 23:35:31;;;;;;;53.15;41.28;;;;;;;;;;5266548;27;20259;-85
2021/08/06 23:37:59;;;;;;;59.35;39.28;;;;;;;;;;5248866;27;20039;-85
2021/08/06 23:40:28;;;;;;;58.13;36.75;;;;;;;;;;5266331;27;20034;-84
2021/08/06 23:42:56;;;;;;;57.80;37.60;;;;;;;;;;5267958;27;20067;-84
2021/08/06 23:45:25;;;;;;;59.95;37.22;;;;;;;;;;5266377;27;20022;-85
2021/08/06 23:47:57;;;;;;;44.72;37.75;;;;;;;;;;5267385;27;20413;-85
2021/08/06 23:50:26;;;;;;;68.05;40.88;;;;;;;;;;5265526;27;20025;-84
2021/08/06 23:52:55;;;;;;;40.60;36.35;;;;;;;;;;5265720;27;20029;-84
2021/08/06 23:55:23;;;;;;;52.22;35.65;;;;;;;;;;5268391;27;20091;-85
2021/08/06 23:57:52;;;;;;;74.72;34.47;;;;;;;;;;5269111;27;20030;-84
